Tohatchi, NM (87325)

8:10 PM MDT on August 29, 2015 (GMT -0600)
Gallup Municipal | | Change Station
CLOSE
Current Station
Airport
Location: Gallup,
Elevation: 6470 ft
Nearby Weather Stations

Elev 6470 ft 35.51 °N, 108.79 °W | Updated 17 minutes ago

Partly Cloudy
Partly Cloudy
75 °F
Feels Like 75 °F
N
13
Wind Variable Wind from South

Today
High -- | Low -- °F
--% Chance of Precip.
Yesterday
High -- | Low -- °F
Precip. -- in
6:44 AM 7:46 PM
Full, 100% visible
Pressure 29.82 in
Visibility 10.0 miles
Clouds Overcast 10000 ft
Dew Point 43 °F
Humidity 32%
Rainfall 0.00 in
Snow Depth Not available.
UV 0 out of 12
Pollen 8.50 out of 12
Air Quality Not available.
Flu Activity Not available.
METAR KGUP 300153Z AUTO 19011KT 10SM OVC100 24/06 A3024 RMK AO2 SLP096 T02390061
Pressure 29.82 in
Visibility 10.0 miles
Clouds Overcast 10000 ft
Dew Point 43 °F
Humidity 32%
Rainfall 0.00 in
Snow Depth Not available.
UV 0 out of 12
Pollen 8.50 out of 12
Air Quality Not available.
Flu Activity Not available.
METAR KGUP 300153Z AUTO 19011KT 10SM OVC100 24/06 A3024 RMK AO2 SLP096 T02390061

10-Day Weather Forecast

×

Almanac

Astronomy

Aug. 29, 2015 Rise Set
Actual Time
Civil Twilight
Nautical Twilight
Astronomical Twilight
Moon
Length of Visible Light
Length of Day
Tomorrow will be .
, % of the Moon is Illuminated

Today's Extremes

State Highs State Lows

Community

WunderPhotos

Upload Photos

1,850,849 photos uploaded!

WunderBlogs® & News

Nearby

Air Quality

  Air Quality AQ Index Pollutant
Not available.

Snow Depth

Station Depth Elevation

Earthquake Activity

City Distance Mag. Time & Date
Minimum magnitude displayed is 2.5.

Coastal Water Temperatures

Place Temperature

Stations

Nearby Weather Stations

Station Location Temp. Windchill Dew Point Humidity Wind Precip. Elev Updated Type